sensor_id;sensor_type;location;lat;lon;timestamp;temperature;humidity
22950;DHT22;11641;51.018;4.474;2022-11-15T00:00:52;12.70;99.90
22950;DHT22;11641;51.018;4.474;2022-11-15T00:03:22;12.80;99.90
22950;DHT22;11641;51.018;4.474;2022-11-15T00:05:50;12.90;99.90
22950;DHT22;11641;51.018;4.474;2022-11-15T00:08:17;12.80;99.90
22950;DHT22;11641;51.018;4.474;2022-11-15T00:10:43;12.90;99.90
22950;DHT22;11641;51.018;4.474;2022-11-15T00:13:09;12.80;99.90
22950;DHT22;11641;51.018;4.474;2022-11-15T00:15:38;12.80;99.90
22950;DHT22;11641;51.018;4.474;2022-11-15T00:18:09;12.80;99.90
22950;DHT22;11641;51.018;4.474;2022-11-15T00:20:37;12.90;99.90
22950;DHT22;11641;51.018;4.474;2022-11-15T00:23:08;12.90;99.90
22950;DHT22;11641;51.018;4.474;2022-11-15T00:25:36;13.00;99.90
22950;DHT22;11641;51.018;4.474;2022-11-15T00:28:02;13.00;99.90
22950;DHT22;11641;51.018;4.474;2022-11-15T00:30:30;13.10;99.90
22950;DHT22;11641;51.018;4.474;2022-11-15T00:32:56;13.10;99.90
22950;DHT22;11641;51.018;4.474;2022-11-15T00:35:22;13.00;99.90
22950;DHT22;11641;51.018;4.474;2022-11-15T00:37:48;13.00;99.90
22950;DHT22;11641;51.018;4.474;2022-11-15T00:40:14;13.10;99.90
22950;DHT22;11641;51.018;4.474;2022-11-15T00:42:40;13.10;99.90
22950;DHT22;11641;51.018;4.474;2022-11-15T00:45:06;13.10;99.90
22950;DHT22;11641;51.018;4.474;2022-11-15T00:47:32;13.10;99.90
22950;DHT22;11641;51.018;4.474;2022-11-15T00:50:00;13.20;99.90
22950;DHT22;11641;51.018;4.474;2022-11-15T00:52:28;13.00;99.90
22950;DHT22;11641;51.018;4.474;2022-11-15T00:54:54;13.00;99.90
22950;DHT22;11641;51.018;4.474;2022-11-15T00:57:20;13.00;99.90
22950;DHT22;11641;51.018;4.474;2022-11-15T00:59:47;13.10;99.90
22950;DHT22;11641;51.018;4.474;2022-11-15T01:02:13;13.30;99.90
22950;DHT22;11641;51.018;4.474;2022-11-15T01:04:39;13.10;99.90
22950;DHT22;11641;51.018;4.474;2022-11-15T01:07:07;13.10;99.90
22950;DHT22;11641;51.018;4.474;2022-11-15T01:09:33;13.10;99.90
22950;DHT22;11641;51.018;4.474;2022-11-15T01:11:59;13.00;99.90
22950;DHT22;11641;51.018;4.474;2022-11-15T01:14:24;13.00;99.90
22950;DHT22;11641;51.018;4.474;2022-11-15T01:16:51;13.10;99.90
22950;DHT22;11641;51.018;4.474;2022-11-15T01:19:20;13.10;99.90
22950;DHT22;11641;51.018;4.474;2022-11-15T01:21:49;13.10;99.90
22950;DHT22;11641;51.018;4.474;2022-11-15T01:24:15;13.20;99.90
22950;DHT22;11641;51.018;4.474;2022-11-15T01:26:40;13.10;99.90
22950;DHT22;11641;51.018;4.474;2022-11-15T01:29:06;13.10;99.90
22950;DHT22;11641;51.018;4.474;2022-11-15T01:31:32;13.30;99.90
22950;DHT22;11641;51.018;4.474;2022-11-15T01:33:58;13.30;99.90
22950;DHT22;11641;51.018;4.474;2022-11-15T01:36:24;13.20;99.90
22950;DHT22;11641;51.018;4.474;2022-11-15T01:38:53;13.20;99.90
22950;DHT22;11641;51.018;4.474;2022-11-15T01:41:20;13.10;99.90
22950;DHT22;11641;51.018;4.474;2022-11-15T01:43:47;13.20;99.90
22950;DHT22;11641;51.018;4.474;2022-11-15T01:48:44;13.30;99.90
22950;DHT22;11641;51.018;4.474;2022-11-15T01:51:11;13.20;99.90
22950;DHT22;11641;51.018;4.474;2022-11-15T01:53:38;13.20;99.90
22950;DHT22;11641;51.018;4.474;2022-11-15T01:56:06;13.10;99.90
22950;DHT22;11641;51.018;4.474;2022-11-15T01:58:33;13.20;99.90
22950;DHT22;11641;51.018;4.474;2022-11-15T02:01:04;13.30;99.90
22950;DHT22;11641;51.018;4.474;2022-11-15T02:03:33;13.30;99.90
22950;DHT22;11641;51.018;4.474;2022-11-15T02:05:59;13.10;99.90
22950;DHT22;11641;51.018;4.474;2022-11-15T02:08:25;13.10;99.90
22950;DHT22;11641;51.018;4.474;2022-11-15T02:10:51;13.00;99.90
22950;DHT22;11641;51.018;4.474;2022-11-15T02:13:16;13.00;99.90
22950;DHT22;11641;51.018;4.474;2022-11-15T02:15:52;13.10;99.90
22950;DHT22;11641;51.018;4.474;2022-11-15T02:28:54;13.20;99.90
22950;DHT22;11641;51.018;4.474;2022-11-15T02:32:06;13.20;99.90
22950;DHT22;11641;51.018;4.474;2022-11-15T02:34:29;13.20;99.90
22950;DHT22;11641;51.018;4.474;2022-11-15T02:37:15;13.10;99.90
22950;DHT22;11641;51.018;4.474;2022-11-15T02:42:30;13.10;99.90
22950;DHT22;11641;51.018;4.474;2022-11-15T02:45:21;13.00;99.90
22950;DHT22;11641;51.018;4.474;2022-11-15T02:47:48;13.00;99.90
22950;DHT22;11641;51.018;4.474;2022-11-15T02:50:19;12.90;99.90
22950;DHT22;11641;51.018;4.474;2022-11-15T02:52:46;12.90;99.90
22950;DHT22;11641;51.018;4.474;2022-11-15T02:55:29;13.00;99.90
22950;DHT22;11641;51.018;4.474;2022-11-15T02:58:05;12.90;99.90
22950;DHT22;11641;51.018;4.474;2022-11-15T03:00:38;12.90;99.90
22950;DHT22;11641;51.018;4.474;2022-11-15T03:11:09;13.00;99.90
22950;DHT22;11641;51.018;4.474;2022-11-15T03:13:37;13.00;99.90
22950;DHT22;11641;51.018;4.474;2022-11-15T03:18:35;12.90;99.90
22950;DHT22;11641;51.018;4.474;2022-11-15T03:21:04;13.00;99.90
22950;DHT22;11641;51.018;4.474;2022-11-15T03:23:30;13.10;99.90
22950;DHT22;11641;51.018;4.474;2022-11-15T03:25:57;12.90;99.90
22950;DHT22;11641;51.018;4.474;2022-11-15T03:28:25;13.00;99.90
22950;DHT22;11641;51.018;4.474;2022-11-15T03:30:52;13.00;99.90
22950;DHT22;11641;51.018;4.474;2022-11-15T03:33:21;13.10;99.90
22950;DHT22;11641;51.018;4.474;2022-11-15T03:35:47;13.10;99.90
22950;DHT22;11641;51.018;4.474;2022-11-15T03:38:17;13.10;99.90
22950;DHT22;11641;51.018;4.474;2022-11-15T03:40:53;13.00;99.90
22950;DHT22;11641;51.018;4.474;2022-11-15T03:46:01;13.00;99.90
22950;DHT22;11641;51.018;4.474;2022-11-15T03:48:30;12.90;99.90
22950;DHT22;11641;51.018;4.474;2022-11-15T03:50:56;12.70;99.90
22950;DHT22;11641;51.018;4.474;2022-11-15T03:53:21;12.80;99.90
22950;DHT22;11641;51.018;4.474;2022-11-15T03:55:47;12.90;99.90
22950;DHT22;11641;51.018;4.474;2022-11-15T03:58:12;12.90;99.90
22950;DHT22;11641;51.018;4.474;2022-11-15T04:00:38;12.90;99.90
22950;DHT22;11641;51.018;4.474;2022-11-15T04:03:07;13.00;99.90
22950;DHT22;11641;51.018;4.474;2022-11-15T04:05:33;12.90;99.90
22950;DHT22;11641;51.018;4.474;2022-11-15T04:07:58;12.80;99.90
22950;DHT22;11641;51.018;4.474;2022-11-15T04:10:28;12.90;99.90
22950;DHT22;11641;51.018;4.474;2022-11-15T04:12:54;12.80;99.90
22950;DHT22;11641;51.018;4.474;2022-11-15T04:15:21;13.00;99.90
22950;DHT22;11641;51.018;4.474;2022-11-15T04:17:50;12.90;99.90
22950;DHT22;11641;51.018;4.474;2022-11-15T04:20:23;12.80;99.90
22950;DHT22;11641;51.018;4.474;2022-11-15T04:23:11;12.70;99.90
22950;DHT22;11641;51.018;4.474;2022-11-15T04:25:59;12.70;99.90
22950;DHT22;11641;51.018;4.474;2022-11-15T04:28:28;12.70;99.90
22950;DHT22;11641;51.018;4.474;2022-11-15T04:30:56;12.60;99.90
22950;DHT22;11641;51.018;4.474;2022-11-15T04:33:21;12.50;99.90
22950;DHT22;11641;51.018;4.474;2022-11-15T04:35:47;12.60;99.90
22950;DHT22;11641;51.018;4.474;2022-11-15T04:38:33;12.60;99.90
22950;DHT22;11641;51.018;4.474;2022-11-15T04:41:01;12.70;99.90
22950;DHT22;11641;51.018;4.474;2022-11-15T04:43:27;12.60;99.90
22950;DHT22;11641;51.018;4.474;2022-11-15T04:45:53;12.70;99.90
22950;DHT22;11641;51.018;4.474;2022-11-15T04:48:20;12.70;99.90
22950;DHT22;11641;51.018;4.474;2022-11-15T04:50:48;12.70;99.90
22950;DHT22;11641;51.018;4.474;2022-11-15T04:53:18;12.60;99.90
22950;DHT22;11641;51.018;4.474;2022-11-15T04:55:47;12.40;99.90
22950;DHT22;11641;51.018;4.474;2022-11-15T04:58:13;12.50;99.90
22950;DHT22;11641;51.018;4.474;2022-11-15T05:00:40;12.40;99.90
22950;DHT22;11641;51.018;4.474;2022-11-15T05:03:05;12.40;99.90
22950;DHT22;11641;51.018;4.474;2022-11-15T05:05:50;12.40;99.90
22950;DHT22;11641;51.018;4.474;2022-11-15T05:08:15;12.40;99.90
22950;DHT22;11641;51.018;4.474;2022-11-15T05:10:41;12.40;99.90
22950;DHT22;11641;51.018;4.474;2022-11-15T05:13:06;12.30;99.90
22950;DHT22;11641;51.018;4.474;2022-11-15T05:15:32;12.20;99.90
22950;DHT22;11641;51.018;4.474;2022-11-15T05:17:58;12.30;99.90
22950;DHT22;11641;51.018;4.474;2022-11-15T05:20:26;12.30;99.90
22950;DHT22;11641;51.018;4.474;2022-11-15T05:22:52;12.10;99.90
22950;DHT22;11641;51.018;4.474;2022-11-15T05:25:20;12.10;99.90
22950;DHT22;11641;51.018;4.474;2022-11-15T05:27:46;12.00;99.90
22950;DHT22;11641;51.018;4.474;2022-11-15T05:30:14;11.90;99.90
22950;DHT22;11641;51.018;4.474;2022-11-15T05:32:40;11.80;99.90
22950;DHT22;11641;51.018;4.474;2022-11-15T05:35:06;11.80;99.90
22950;DHT22;11641;51.018;4.474;2022-11-15T05:37:32;11.90;99.90
22950;DHT22;11641;51.018;4.474;2022-11-15T05:39:57;12.00;99.90
22950;DHT22;11641;51.018;4.474;2022-11-15T05:42:23;11.90;99.90
22950;DHT22;11641;51.018;4.474;2022-11-15T05:44:54;11.90;99.90
22950;DHT22;11641;51.018;4.474;2022-11-15T05:47:22;11.80;99.90
22950;DHT22;11641;51.018;4.474;2022-11-15T05:49:53;11.80;99.90
22950;DHT22;11641;51.018;4.474;2022-11-15T05:52:20;11.80;99.90
22950;DHT22;11641;51.018;4.474;2022-11-15T05:54:47;11.80;99.90
22950;DHT22;11641;51.018;4.474;2022-11-15T05:57:14;11.80;99.90
22950;DHT22;11641;51.018;4.474;2022-11-15T05:59:40;11.70;99.90
22950;DHT22;11641;51.018;4.474;2022-11-15T06:02:07;11.70;99.90
22950;DHT22;11641;51.018;4.474;2022-11-15T06:04:36;11.60;99.90
22950;DHT22;11641;51.018;4.474;2022-11-15T06:07:03;11.60;99.90
22950;DHT22;11641;51.018;4.474;2022-11-15T06:09:28;11.60;99.90
22950;DHT22;11641;51.018;4.474;2022-11-15T06:11:54;11.50;99.90
22950;DHT22;11641;51.018;4.474;2022-11-15T06:14:19;11.50;99.90
22950;DHT22;11641;51.018;4.474;2022-11-15T06:16:45;11.40;99.90
22950;DHT22;11641;51.018;4.474;2022-11-15T06:19:11;11.40;99.90
22950;DHT22;11641;51.018;4.474;2022-11-15T06:21:36;11.30;99.90
22950;DHT22;11641;51.018;4.474;2022-11-15T06:24:02;11.30;99.90
22950;DHT22;11641;51.018;4.474;2022-11-15T06:26:27;11.30;99.90
22950;DHT22;11641;51.018;4.474;2022-11-15T06:28:53;11.20;99.90
22950;DHT22;11641;51.018;4.474;2022-11-15T06:31:20;11.20;99.90
22950;DHT22;11641;51.018;4.474;2022-11-15T06:33:46;11.20;99.90
22950;DHT22;11641;51.018;4.474;2022-11-15T06:36:12;11.20;99.90
22950;DHT22;11641;51.018;4.474;2022-11-15T06:38:44;11.10;99.90
22950;DHT22;11641;51.018;4.474;2022-11-15T06:41:10;11.00;99.90
22950;DHT22;11641;51.018;4.474;2022-11-15T06:43:37;10.90;99.90
22950;DHT22;11641;51.018;4.474;2022-11-15T06:46:05;10.80;99.90
22950;DHT22;11641;51.018;4.474;2022-11-15T06:48:33;10.70;99.90
22950;DHT22;11641;51.018;4.474;2022-11-15T06:51:00;10.70;99.90
22950;DHT22;11641;51.018;4.474;2022-11-15T06:53:27;10.60;99.90
22950;DHT22;11641;51.018;4.474;2022-11-15T06:55:53;10.50;99.90
22950;DHT22;11641;51.018;4.474;2022-11-15T06:58:20;10.40;99.90
22950;DHT22;11641;51.018;4.474;2022-11-15T07:00:46;10.40;99.90
22950;DHT22;11641;51.018;4.474;2022-11-15T07:03:14;10.30;99.90
22950;DHT22;11641;51.018;4.474;2022-11-15T07:05:40;10.30;99.90
22950;DHT22;11641;51.018;4.474;2022-11-15T07:08:06;10.30;99.90
22950;DHT22;11641;51.018;4.474;2022-11-15T07:10:37;10.30;99.90
22950;DHT22;11641;51.018;4.474;2022-11-15T07:13:02;10.30;99.90
22950;DHT22;11641;51.018;4.474;2022-11-15T07:15:30;10.30;99.90
22950;DHT22;11641;51.018;4.474;2022-11-15T07:17:56;10.20;99.90
22950;DHT22;11641;51.018;4.474;2022-11-15T07:20:25;10.20;99.90
22950;DHT22;11641;51.018;4.474;2022-11-15T07:22:55;10.20;99.90
22950;DHT22;11641;51.018;4.474;2022-11-15T07:25:27;10.20;99.90
22950;DHT22;11641;51.018;4.474;2022-11-15T07:27:54;10.20;99.90
22950;DHT22;11641;51.018;4.474;2022-11-15T07:30:20;10.30;99.90
22950;DHT22;11641;51.018;4.474;2022-11-15T07:32:48;10.30;99.90
22950;DHT22;11641;51.018;4.474;2022-11-15T07:35:19;10.40;99.90
22950;DHT22;11641;51.018;4.474;2022-11-15T07:37:52;10.40;99.90
22950;DHT22;11641;51.018;4.474;2022-11-15T07:40:17;10.40;99.90
22950;DHT22;11641;51.018;4.474;2022-11-15T07:42:45;10.50;99.90
22950;DHT22;11641;51.018;4.474;2022-11-15T07:45:21;10.50;99.90
22950;DHT22;11641;51.018;4.474;2022-11-15T07:47:50;10.50;99.90
22950;DHT22;11641;51.018;4.474;2022-11-15T07:50:18;10.50;99.90
22950;DHT22;11641;51.018;4.474;2022-11-15T07:52:44;10.60;99.90
22950;DHT22;11641;51.018;4.474;2022-11-15T07:55:12;10.60;99.90
22950;DHT22;11641;51.018;4.474;2022-11-15T07:57:39;10.70;99.90
22950;DHT22;11641;51.018;4.474;2022-11-15T08:00:05;10.60;99.90
22950;DHT22;11641;51.018;4.474;2022-11-15T08:02:31;10.60;99.90
22950;DHT22;11641;51.018;4.474;2022-11-15T08:04:57;10.70;99.90
22950;DHT22;11641;51.018;4.474;2022-11-15T08:07:24;10.70;99.90
22950;DHT22;11641;51.018;4.474;2022-11-15T08:09:50;10.80;99.90
22950;DHT22;11641;51.018;4.474;2022-11-15T08:12:17;11.00;99.90
22950;DHT22;11641;51.018;4.474;2022-11-15T08:14:43;11.00;99.90
22950;DHT22;11641;51.018;4.474;2022-11-15T08:17:09;11.20;99.90
22950;DHT22;11641;51.018;4.474;2022-11-15T08:19:35;11.10;99.90
22950;DHT22;11641;51.018;4.474;2022-11-15T08:22:00;11.30;99.90
22950;DHT22;11641;51.018;4.474;2022-11-15T08:24:26;11.40;99.90
22950;DHT22;11641;51.018;4.474;2022-11-15T08:26:54;11.40;99.90
22950;DHT22;11641;51.018;4.474;2022-11-15T08:29:20;11.60;99.90
22950;DHT22;11641;51.018;4.474;2022-11-15T08:31:45;11.70;99.90
22950;DHT22;11641;51.018;4.474;2022-11-15T08:34:11;11.80;99.90
22950;DHT22;11641;51.018;4.474;2022-11-15T08:36:37;12.10;99.90
22950;DHT22;11641;51.018;4.474;2022-11-15T08:39:05;12.10;99.90
22950;DHT22;11641;51.018;4.474;2022-11-15T08:41:33;12.40;99.90
22950;DHT22;11641;51.018;4.474;2022-11-15T08:44:01;12.50;99.90
22950;DHT22;11641;51.018;4.474;2022-11-15T08:46:26;12.70;99.90
22950;DHT22;11641;51.018;4.474;2022-11-15T08:48:52;12.70;99.90
22950;DHT22;11641;51.018;4.474;2022-11-15T08:51:17;13.00;99.90
22950;DHT22;11641;51.018;4.474;2022-11-15T08:53:43;13.30;99.90
22950;DHT22;11641;51.018;4.474;2022-11-15T08:56:14;13.30;99.90
22950;DHT22;11641;51.018;4.474;2022-11-15T08:58:40;13.20;99.90
22950;DHT22;11641;51.018;4.474;2022-11-15T09:01:13;13.50;99.90
22950;DHT22;11641;51.018;4.474;2022-11-15T09:03:42;13.40;99.90
22950;DHT22;11641;51.018;4.474;2022-11-15T09:06:08;14.00;99.90
22950;DHT22;11641;51.018;4.474;2022-11-15T09:08:34;15.10;99.90
22950;DHT22;11641;51.018;4.474;2022-11-15T09:11:02;15.90;99.90
22950;DHT22;11641;51.018;4.474;2022-11-15T09:13:30;17.00;99.90
22950;DHT22;11641;51.018;4.474;2022-11-15T09:15:59;17.50;99.90
22950;DHT22;11641;51.018;4.474;2022-11-15T09:18:27;18.60;99.90
22950;DHT22;11641;51.018;4.474;2022-11-15T09:20:57;19.10;99.90
22950;DHT22;11641;51.018;4.474;2022-11-15T09:23:23;19.10;99.90
22950;DHT22;11641;51.018;4.474;2022-11-15T09:25:51;18.70;99.90
22950;DHT22;11641;51.018;4.474;2022-11-15T09:28:19;17.50;99.90
22950;DHT22;11641;51.018;4.474;2022-11-15T09:30:45;16.80;99.90
22950;DHT22;11641;51.018;4.474;2022-11-15T09:33:11;16.50;99.90
22950;DHT22;11641;51.018;4.474;2022-11-15T09:35:37;17.50;99.90
22950;DHT22;11641;51.018;4.474;2022-11-15T09:38:06;19.40;99.90
22950;DHT22;11641;51.018;4.474;2022-11-15T09:40:32;20.70;99.90
22950;DHT22;11641;51.018;4.474;2022-11-15T09:43:05;20.40;99.90
22950;DHT22;11641;51.018;4.474;2022-11-15T09:50:56;22.20;99.90
22950;DHT22;11641;51.018;4.474;2022-11-15T09:56:00;23.00;97.70
22950;DHT22;11641;51.018;4.474;2022-11-15T10:01:02;23.00;96.60
22950;DHT22;11641;51.018;4.474;2022-11-15T10:03:33;23.20;96.50
22950;DHT22;11641;51.018;4.474;2022-11-15T10:06:03;24.20;95.10
22950;DHT22;11641;51.018;4.474;2022-11-15T10:08:40;22.50;95.90
22950;DHT22;11641;51.018;4.474;2022-11-15T10:11:10;22.90;96.50
22950;DHT22;11641;51.018;4.474;2022-11-15T10:13:40;23.80;94.00
22950;DHT22;11641;51.018;4.474;2022-11-15T10:16:19;24.60;92.00
22950;DHT22;11641;51.018;4.474;2022-11-15T10:21:24;24.80;91.10
22950;DHT22;11641;51.018;4.474;2022-11-15T10:23:53;24.40;90.90
22950;DHT22;11641;51.018;4.474;2022-11-15T10:26:18;23.90;90.90
22950;DHT22;11641;51.018;4.474;2022-11-15T10:28:44;23.40;92.60
22950;DHT22;11641;51.018;4.474;2022-11-15T10:31:27;23.20;92.50
22950;DHT22;11641;51.018;4.474;2022-11-15T10:37:02;22.50;94.80
22950;DHT22;11641;51.018;4.474;2022-11-15T10:39:28;22.40;95.20
22950;DHT22;11641;51.018;4.474;2022-11-15T10:41:54;22.10;95.00
22950;DHT22;11641;51.018;4.474;2022-11-15T10:44:21;20.70;96.70
22950;DHT22;11641;51.018;4.474;2022-11-15T10:46:48;20.00;99.80
22950;DHT22;11641;51.018;4.474;2022-11-15T10:49:19;20.30;99.50
22950;DHT22;11641;51.018;4.474;2022-11-15T10:54:11;19.60;99.90
22950;DHT22;11641;51.018;4.474;2022-11-15T10:56:37;19.20;99.90
22950;DHT22;11641;51.018;4.474;2022-11-15T10:59:02;18.90;99.90
22950;DHT22;11641;51.018;4.474;2022-11-15T11:01:28;18.40;99.90
22950;DHT22;11641;51.018;4.474;2022-11-15T11:04:01;17.90;99.90
22950;DHT22;11641;51.018;4.474;2022-11-15T11:06:28;17.70;99.90
22950;DHT22;11641;51.018;4.474;2022-11-15T11:09:03;17.20;99.90
22950;DHT22;11641;51.018;4.474;2022-11-15T11:11:53;16.70;99.90
22950;DHT22;11641;51.018;4.474;2022-11-15T11:14:23;16.60;99.90
22950;DHT22;11641;51.018;4.474;2022-11-15T11:16:52;16.30;99.90
22950;DHT22;11641;51.018;4.474;2022-11-15T11:24:53;15.90;99.90
22950;DHT22;11641;51.018;4.474;2022-11-15T11:27:43;16.00;99.90
22950;DHT22;11641;51.018;4.474;2022-11-15T11:37:46;15.70;99.90
22950;DHT22;11641;51.018;4.474;2022-11-15T11:47:38;15.60;99.90
22950;DHT22;11641;51.018;4.474;2022-11-15T11:50:11;15.90;99.90
22950;DHT22;11641;51.018;4.474;2022-11-15T11:52:59;16.40;99.90
22950;DHT22;11641;51.018;4.474;2022-11-15T11:55:27;16.90;99.90
22950;DHT22;11641;51.018;4.474;2022-11-15T12:00:33;17.50;99.90
22950;DHT22;11641;51.018;4.474;2022-11-15T12:03:03;17.00;99.90
22950;DHT22;11641;51.018;4.474;2022-11-15T12:05:32;16.50;99.90
22950;DHT22;11641;51.018;4.474;2022-11-15T12:08:03;16.20;99.90
22950;DHT22;11641;51.018;4.474;2022-11-15T12:10:30;16.10;99.90
22950;DHT22;11641;51.018;4.474;2022-11-15T12:18:15;15.70;99.90
22950;DHT22;11641;51.018;4.474;2022-11-15T12:20:49;15.40;99.90
22950;DHT22;11641;51.018;4.474;2022-11-15T12:23:19;15.20;99.90
22950;DHT22;11641;51.018;4.474;2022-11-15T12:28:53;15.20;99.90
22950;DHT22;11641;51.018;4.474;2022-11-15T12:31:41;15.30;99.90
22950;DHT22;11641;51.018;4.474;2022-11-15T12:36:51;15.20;99.90
22950;DHT22;11641;51.018;4.474;2022-11-15T12:39:20;15.30;99.90
22950;DHT22;11641;51.018;4.474;2022-11-15T12:47:01;15.20;99.90
22950;DHT22;11641;51.018;4.474;2022-11-15T13:02:22;15.30;99.90
22950;DHT22;11641;51.018;4.474;2022-11-15T13:04:48;15.30;99.90
22950;DHT22;11641;51.018;4.474;2022-11-15T13:09:58;15.60;99.90
22950;DHT22;11641;51.018;4.474;2022-11-15T13:14:53;15.60;99.90
22950;DHT22;11641;51.018;4.474;2022-11-15T13:19:47;16.40;99.90
22950;DHT22;11641;51.018;4.474;2022-11-15T13:22:13;16.50;99.90
22950;DHT22;11641;51.018;4.474;2022-11-15T13:24:58;16.40;99.90
22950;DHT22;11641;51.018;4.474;2022-11-15T13:27:26;16.40;99.90
22950;DHT22;11641;51.018;4.474;2022-11-15T13:29:51;16.50;99.90
22950;DHT22;11641;51.018;4.474;2022-11-15T13:32:18;16.30;99.90
22950;DHT22;11641;51.018;4.474;2022-11-15T13:34:46;16.10;99.90
22950;DHT22;11641;51.018;4.474;2022-11-15T13:39:49;15.80;99.90
22950;DHT22;11641;51.018;4.474;2022-11-15T13:42:18;15.70;99.90
22950;DHT22;11641;51.018;4.474;2022-11-15T13:44:54;15.50;99.90
22950;DHT22;11641;51.018;4.474;2022-11-15T13:47:24;15.50;99.90
22950;DHT22;11641;51.018;4.474;2022-11-15T13:49:51;15.30;99.90
22950;DHT22;11641;51.018;4.474;2022-11-15T13:52:19;15.40;99.90
22950;DHT22;11641;51.018;4.474;2022-11-15T13:54:50;15.40;99.90
22950;DHT22;11641;51.018;4.474;2022-11-15T13:59:52;15.00;99.90
22950;DHT22;11641;51.018;4.474;2022-11-15T14:02:19;15.20;99.90
22950;DHT22;11641;51.018;4.474;2022-11-15T14:04:55;15.30;99.90
22950;DHT22;11641;51.018;4.474;2022-11-15T14:07:24;15.30;99.90
22950;DHT22;11641;51.018;4.474;2022-11-15T14:09:50;15.40;99.90
22950;DHT22;11641;51.018;4.474;2022-11-15T14:12:21;15.30;99.90
22950;DHT22;11641;51.018;4.474;2022-11-15T14:14:47;15.10;99.90
22950;DHT22;11641;51.018;4.474;2022-11-15T14:17:47;15.20;99.90
22950;DHT22;11641;51.018;4.474;2022-11-15T14:23:19;15.10;99.90
22950;DHT22;11641;51.018;4.474;2022-11-15T14:25:54;15.30;99.90
22950;DHT22;11641;51.018;4.474;2022-11-15T14:30:48;15.00;99.90
22950;DHT22;11641;51.018;4.474;2022-11-15T14:33:36;14.90;99.90
22950;DHT22;11641;51.018;4.474;2022-11-15T14:36:10;14.80;99.90
22950;DHT22;11641;51.018;4.474;2022-11-15T14:38:35;14.70;99.90
22950;DHT22;11641;51.018;4.474;2022-11-15T14:41:01;14.60;99.90
22950;DHT22;11641;51.018;4.474;2022-11-15T14:43:27;14.60;99.90
22950;DHT22;11641;51.018;4.474;2022-11-15T14:45:55;14.50;99.90
22950;DHT22;11641;51.018;4.474;2022-11-15T14:48:23;14.40;99.90
22950;DHT22;11641;51.018;4.474;2022-11-15T14:50:51;14.50;99.90
22950;DHT22;11641;51.018;4.474;2022-11-15T14:53:19;14.50;99.90
22950;DHT22;11641;51.018;4.474;2022-11-15T14:55:47;14.40;99.90
22950;DHT22;11641;51.018;4.474;2022-11-15T14:58:13;14.40;99.90
22950;DHT22;11641;51.018;4.474;2022-11-15T15:00:39;14.30;99.90
22950;DHT22;11641;51.018;4.474;2022-11-15T15:03:05;14.30;99.90
22950;DHT22;11641;51.018;4.474;2022-11-15T15:05:35;14.10;99.90
22950;DHT22;11641;51.018;4.474;2022-11-15T15:08:01;14.00;99.90
22950;DHT22;11641;51.018;4.474;2022-11-15T15:10:30;14.00;99.90
22950;DHT22;11641;51.018;4.474;2022-11-15T15:12:56;14.00;99.90
22950;DHT22;11641;51.018;4.474;2022-11-15T15:15:24;14.10;99.90
22950;DHT22;11641;51.018;4.474;2022-11-15T15:17:52;14.00;99.90
22950;DHT22;11641;51.018;4.474;2022-11-15T15:20:20;13.90;99.90
22950;DHT22;11641;51.018;4.474;2022-11-15T15:22:46;13.70;99.90
22950;DHT22;11641;51.018;4.474;2022-11-15T15:25:20;13.70;99.90
22950;DHT22;11641;51.018;4.474;2022-11-15T15:27:46;13.70;99.90
22950;DHT22;11641;51.018;4.474;2022-11-15T15:30:12;13.70;99.90
22950;DHT22;11641;51.018;4.474;2022-11-15T15:32:38;13.90;99.90
22950;DHT22;11641;51.018;4.474;2022-11-15T15:35:03;13.90;99.90
22950;DHT22;11641;51.018;4.474;2022-11-15T15:37:29;13.90;99.90
22950;DHT22;11641;51.018;4.474;2022-11-15T15:39:58;13.70;99.90
22950;DHT22;11641;51.018;4.474;2022-11-15T15:42:24;13.60;99.90
22950;DHT22;11641;51.018;4.474;2022-11-15T15:44:50;13.60;99.90
22950;DHT22;11641;51.018;4.474;2022-11-15T15:47:16;13.60;99.90
22950;DHT22;11641;51.018;4.474;2022-11-15T15:49:43;13.40;99.90
22950;DHT22;11641;51.018;4.474;2022-11-15T15:52:09;13.60;99.90
22950;DHT22;11641;51.018;4.474;2022-11-15T15:54:35;13.70;99.90
22950;DHT22;11641;51.018;4.474;2022-11-15T15:57:01;13.80;99.90
22950;DHT22;11641;51.018;4.474;2022-11-15T15:59:27;13.60;99.90
22950;DHT22;11641;51.018;4.474;2022-11-15T16:01:53;13.40;99.90
22950;DHT22;11641;51.018;4.474;2022-11-15T16:04:19;13.40;99.90
22950;DHT22;11641;51.018;4.474;2022-11-15T16:06:44;13.20;99.90
22950;DHT22;11641;51.018;4.474;2022-11-15T16:09:14;13.20;99.90
22950;DHT22;11641;51.018;4.474;2022-11-15T16:11:40;13.20;99.90
22950;DHT22;11641;51.018;4.474;2022-11-15T16:14:07;13.10;99.90
22950;DHT22;11641;51.018;4.474;2022-11-15T16:16:35;13.10;99.90
22950;DHT22;11641;51.018;4.474;2022-11-15T16:19:01;13.20;99.90
22950;DHT22;11641;51.018;4.474;2022-11-15T16:21:27;13.10;99.90
22950;DHT22;11641;51.018;4.474;2022-11-15T16:23:53;13.20;99.90
22950;DHT22;11641;51.018;4.474;2022-11-15T16:26:25;13.20;99.90
22950;DHT22;11641;51.018;4.474;2022-11-15T16:28:52;13.20;99.90
22950;DHT22;11641;51.018;4.474;2022-11-15T16:31:20;13.20;99.90
22950;DHT22;11641;51.018;4.474;2022-11-15T16:33:48;13.30;99.90
22950;DHT22;11641;51.018;4.474;2022-11-15T16:36:24;13.20;99.90
22950;DHT22;11641;51.018;4.474;2022-11-15T16:38:54;13.10;99.90
22950;DHT22;11641;51.018;4.474;2022-11-15T16:41:21;13.00;99.90
22950;DHT22;11641;51.018;4.474;2022-11-15T16:43:49;13.20;99.90
22950;DHT22;11641;51.018;4.474;2022-11-15T16:48:43;13.20;99.90
22950;DHT22;11641;51.018;4.474;2022-11-15T16:51:09;13.20;99.90
22950;DHT22;11641;51.018;4.474;2022-11-15T16:53:35;13.20;99.90
22950;DHT22;11641;51.018;4.474;2022-11-15T16:56:00;13.30;99.90
22950;DHT22;11641;51.018;4.474;2022-11-15T16:58:26;13.10;99.90
22950;DHT22;11641;51.018;4.474;2022-11-15T17:00:55;13.20;99.90
22950;DHT22;11641;51.018;4.474;2022-11-15T17:03:22;13.30;99.90
22950;DHT22;11641;51.018;4.474;2022-11-15T17:05:52;13.20;99.90
22950;DHT22;11641;51.018;4.474;2022-11-15T17:08:22;13.20;99.90
22950;DHT22;11641;51.018;4.474;2022-11-15T17:10:48;13.10;99.90
22950;DHT22;11641;51.018;4.474;2022-11-15T17:13:14;13.20;99.90
22950;DHT22;11641;51.018;4.474;2022-11-15T17:15:39;13.40;99.90
22950;DHT22;11641;51.018;4.474;2022-11-15T17:18:05;13.40;99.90
22950;DHT22;11641;51.018;4.474;2022-11-15T17:20:31;13.30;99.90
22950;DHT22;11641;51.018;4.474;2022-11-15T17:22:57;13.50;99.90
22950;DHT22;11641;51.018;4.474;2022-11-15T17:25:22;13.50;99.90
22950;DHT22;11641;51.018;4.474;2022-11-15T17:27:51;13.40;99.90
22950;DHT22;11641;51.018;4.474;2022-11-15T17:30:16;13.50;99.90
22950;DHT22;11641;51.018;4.474;2022-11-15T17:32:44;13.40;99.90
22950;DHT22;11641;51.018;4.474;2022-11-15T17:35:12;13.30;99.90
22950;DHT22;11641;51.018;4.474;2022-11-15T17:37:38;13.30;99.90